Time;durP1;ratioP1;P1;durP2;ratioP2;P2;SDS_P1;SDS_P2;PMS_P1;PMS_P2;Temp;Humidity;BMP_temperature;BMP_pressure;BME280_temperature;BME280_humidity;BME280_pressure;Samples;Min_cycle;Max_cycle;Signal;HPM_P1;HPM_P2
2021/10/08 00:01:31;;;;;;;17.67;11.27;;;9.20;99.90;;;;;;5055476;28;20598;-81
2021/10/08 00:03:57;;;;;;;19.10;13.00;;;9.10;99.90;;;;;;5055007;28;20511;-79
2021/10/08 00:06:23;;;;;;;17.70;12.70;;;9.10;99.90;;;;;;5054817;28;20426;-80
2021/10/08 00:08:49;;;;;;;20.50;13.20;;;9.10;99.90;;;;;;5054666;28;20496;-79
2021/10/08 00:11:16;;;;;;;19.90;13.07;;;9.10;99.90;;;;;;5054790;28;20666;-80
2021/10/08 00:13:43;;;;;;;21.30;13.20;;;9.10;99.90;;;;;;5054438;28;20445;-81
2021/10/08 00:16:09;;;;;;;18.87;11.97;;;9.10;99.90;;;;;;5055156;28;20890;-79
2021/10/08 00:18:36;;;;;;;23.07;13.57;;;9.00;99.90;;;;;;5054466;28;20427;-79
2021/10/08 00:21:03;;;;;;;20.13;13.60;;;9.10;99.90;;;;;;5054880;28;20877;-80
2021/10/08 00:23:29;;;;;;;22.67;14.87;;;9.00;99.90;;;;;;5054630;28;20520;-79
2021/10/08 00:25:55;;;;;;;19.00;13.00;;;8.90;99.90;;;;;;5054662;28;20454;-80
2021/10/08 00:28:21;;;;;;;22.10;12.83;;;8.90;99.90;;;;;;5054925;28;20264;-80
2021/10/08 00:30:46;;;;;;;19.13;13.30;;;8.90;99.90;;;;;;5054271;28;20464;-80
2021/10/08 00:33:12;;;;;;;17.83;12.23;;;8.90;99.90;;;;;;5054337;28;20183;-80
2021/10/08 00:35:39;;;;;;;21.77;13.90;;;8.90;99.90;;;;;;5054176;28;20195;-82
2021/10/08 00:38:06;;;;;;;18.00;12.20;;;9.00;99.90;;;;;;5062631;28;20188;-82
2021/10/08 00:40:36;;;;;;;17.70;12.47;;;9.00;99.90;;;;;;5063596;28;20450;-82
2021/10/08 00:43:03;;;;;;;21.60;12.47;;;9.00;99.90;;;;;;5063666;28;20889;-81
2021/10/08 00:45:29;;;;;;;24.30;14.23;;;8.90;99.90;;;;;;5063263;28;20438;-81
2021/10/08 00:48:16;;;;;;;18.07;11.97;;;8.90;99.90;;;;;;5062492;28;20458;-81
2021/10/08 00:50:47;;;;;;;20.10;12.67;;;8.90;99.90;;;;;;5062355;28;20425;-80
2021/10/08 00:53:14;;;;;;;17.97;12.53;;;8.90;99.90;;;;;;5062133;28;20425;-81
2021/10/08 00:55:43;;;;;;;17.40;12.80;;;8.90;99.90;;;;;;5062190;28;20509;-80
2021/10/08 00:58:11;;;;;;;18.93;12.73;;;8.90;99.90;;;;;;5061687;28;20421;-81
2021/10/08 01:00:42;;;;;;;17.17;12.50;;;8.80;99.90;;;;;;5061700;28;20891;-81
2021/10/08 01:03:10;;;;;;;20.00;12.73;;;8.80;99.90;;;;;;5060810;28;20426;-79
2021/10/08 01:05:37;;;;;;;19.43;13.40;;;8.80;99.90;;;;;;5060834;28;20461;-80
2021/10/08 01:08:03;;;;;;;20.87;12.23;;;8.80;99.90;;;;;;5060301;28;20458;-81
2021/10/08 01:10:29;;;;;;;17.40;11.40;;;8.70;99.90;;;;;;5059219;28;20782;-80
2021/10/08 01:12:56;;;;;;;19.43;11.80;;;8.80;99.90;;;;;;5058928;28;20426;-81
2021/10/08 01:15:21;;;;;;;17.87;11.03;;;8.80;99.90;;;;;;5058146;28;20439;-80
2021/10/08 01:17:54;;;;;;;20.30;13.40;;;8.70;99.90;;;;;;5058484;28;20432;-81
2021/10/08 01:20:22;;;;;;;17.60;12.00;;;8.60;99.90;;;;;;5061013;28;20210;-82
2021/10/08 01:22:48;;;;;;;17.17;11.27;;;8.70;99.90;;;;;;5062459;28;20433;-81
2021/10/08 01:25:14;;;;;;;19.93;11.83;;;8.70;99.90;;;;;;5062684;28;20437;-82
2021/10/08 01:27:43;;;;;;;14.90;10.93;;;8.80;99.90;;;;;;5061710;28;20976;-80
2021/10/08 01:30:10;;;;;;;29.63;12.53;;;8.80;99.90;;;;;;5061578;28;20888;-80
2021/10/08 01:32:37;;;;;;;15.10;11.00;;;8.80;99.90;;;;;;5060406;28;20470;-80
2021/10/08 01:35:05;;;;;;;16.23;11.20;;;8.70;99.90;;;;;;5060572;28;20450;-80
2021/10/08 01:37:31;;;;;;;15.20;10.37;;;8.60;99.90;;;;;;5059875;28;20425;-80
2021/10/08 01:39:56;;;;;;;18.07;11.43;;;8.60;99.90;;;;;;5059722;28;20441;-80
2021/10/08 01:42:22;;;;;;;15.83;10.73;;;8.70;99.90;;;;;;5058704;28;20426;-80
2021/10/08 01:44:48;;;;;;;16.30;10.77;;;8.50;99.90;;;;;;5058620;28;20235;-82
2021/10/08 01:47:14;;;;;;;16.50;9.80;;;8.50;99.90;;;;;;5058556;28;20673;-79
2021/10/08 01:49:39;;;;;;;16.30;11.10;;;8.50;99.90;;;;;;5057936;28;20215;-80
2021/10/08 01:52:06;;;;;;;13.53;10.67;;;8.50;99.90;;;;;;5057233;28;20191;-79
2021/10/08 01:54:32;;;;;;;17.53;11.10;;;8.50;99.90;;;;;;5058423;28;20207;-79
2021/10/08 01:56:58;;;;;;;12.53;10.13;;;8.40;99.90;;;;;;5056924;28;20445;-79
2021/10/08 01:59:24;;;;;;;15.10;10.30;;;8.40;99.90;;;;;;5056869;28;20490;-79
2021/10/08 02:01:50;;;;;;;12.53;8.77;;;8.30;99.90;;;;;;5056914;28;20507;-79
2021/10/08 02:04:16;;;;;;;15.37;9.67;;;8.30;99.90;;;;;;5056500;28;20210;-80
2021/10/08 02:06:42;;;;;;;14.00;9.10;;;8.30;99.90;;;;;;5056277;28;20733;-79
2021/10/08 02:09:08;;;;;;;11.27;7.90;;;8.20;99.90;;;;;;5056245;28;20552;-79
2021/10/08 02:11:34;;;;;;;12.03;8.80;;;8.10;99.90;;;;;;5055684;28;20554;-81
2021/10/08 02:14:00;;;;;;;11.03;8.30;;;8.10;99.90;;;;;;5055706;28;20525;-79
2021/10/08 02:16:26;;;;;;;11.00;7.80;;;8.00;99.90;;;;;;5056210;28;20184;-79
2021/10/08 02:18:54;;;;;;;13.80;8.60;;;8.00;99.90;;;;;;5055204;28;20433;-79
2021/10/08 02:21:21;;;;;;;12.17;8.37;;;8.10;99.90;;;;;;5054846;28;20418;-79
2021/10/08 02:23:51;;;;;;;11.97;8.20;;;8.10;99.90;;;;;;5054282;28;20495;-80
2021/10/08 02:26:20;;;;;;;13.10;8.30;;;8.10;99.90;;;;;;5053967;28;20505;-79
2021/10/08 02:28:46;;;;;;;13.87;8.63;;;8.00;99.90;;;;;;5056534;28;20544;-79
2021/10/08 02:31:12;;;;;;;11.80;8.77;;;8.00;99.90;;;;;;5057603;28;20483;-79
2021/10/08 02:33:38;;;;;;;19.73;10.40;;;8.00;99.90;;;;;;5057229;28;20468;-80
2021/10/08 02:36:06;;;;;;;22.17;11.53;;;7.90;99.90;;;;;;5056573;28;20943;-79
2021/10/08 02:38:32;;;;;;;16.70;9.60;;;7.90;99.90;;;;;;5057097;28;20430;-80
2021/10/08 02:40:58;;;;;;;22.67;13.10;;;7.90;99.90;;;;;;5056707;28;20467;-80
2021/10/08 02:43:24;;;;;;;17.27;9.70;;;8.00;99.90;;;;;;5056002;28;20822;-81
2021/10/08 02:45:50;;;;;;;17.80;9.80;;;7.90;99.90;;;;;;5056608;28;20222;-79
2021/10/08 02:48:16;;;;;;;21.00;9.67;;;7.90;99.90;;;;;;5056432;28;20458;-79
2021/10/08 02:50:43;;;;;;;23.50;10.10;;;7.90;99.90;;;;;;5056913;28;21001;-80
2021/10/08 02:53:09;;;;;;;33.37;11.27;;;7.90;99.90;;;;;;5055928;28;20182;-80
2021/10/08 02:55:34;;;;;;;16.53;10.10;;;8.00;99.90;;;;;;5056339;28;20806;-81
2021/10/08 02:58:00;;;;;;;17.77;10.63;;;8.10;99.90;;;;;;5056462;28;20422;-80
2021/10/08 03:00:26;;;;;;;33.73;11.40;;;8.10;99.90;;;;;;5055887;28;20263;-80
2021/10/08 03:02:52;;;;;;;21.73;9.80;;;8.00;99.90;;;;;;5055993;28;20454;-80
2021/10/08 03:05:18;;;;;;;23.80;11.40;;;8.00;99.90;;;;;;5055448;28;20442;-79
2021/10/08 03:07:44;;;;;;;17.00;9.40;;;7.90;99.90;;;;;;5055205;28;20208;-80
2021/10/08 03:10:11;;;;;;;26.60;13.07;;;7.90;99.90;;;;;;5054995;28;20418;-79
2021/10/08 03:12:37;;;;;;;32.07;10.93;;;7.90;99.90;;;;;;5054642;28;20180;-79
2021/10/08 03:15:05;;;;;;;18.10;8.90;;;7.70;99.90;;;;;;5054470;28;20445;-79
2021/10/08 03:17:30;;;;;;;16.77;9.57;;;7.60;99.90;;;;;;5054313;28;20426;-79
2021/10/08 03:19:56;;;;;;;12.40;7.67;;;7.50;99.90;;;;;;5054482;28;20411;-80
2021/10/08 03:22:26;;;;;;;19.23;8.07;;;7.50;99.90;;;;;;5054240;28;20545;-80
2021/10/08 03:24:52;;;;;;;18.43;9.07;;;7.50;99.90;;;;;;5054695;28;20205;-79
2021/10/08 03:27:18;;;;;;;17.37;8.20;;;7.40;99.90;;;;;;5054522;28;20867;-80
2021/10/08 03:29:44;;;;;;;19.70;9.97;;;7.40;99.90;;;;;;5054521;28;20650;-79
2021/10/08 03:32:10;;;;;;;18.73;8.90;;;7.40;99.90;;;;;;5054183;28;20940;-79
2021/10/08 03:34:38;;;;;;;15.87;8.10;;;7.40;99.90;;;;;;5055489;28;20227;-82
2021/10/08 03:37:08;;;;;;;15.43;8.23;;;7.40;99.90;;;;;;5067236;28;20210;-81
2021/10/08 03:39:37;;;;;;;18.07;8.90;;;7.40;99.90;;;;;;5066365;28;20442;-82
2021/10/08 03:42:04;;;;;;;15.10;9.27;;;7.40;99.90;;;;;;5066679;28;20437;-82
2021/10/08 03:44:38;;;;;;;14.63;9.47;;;7.40;99.90;;;;;;5065742;28;20513;-81
2021/10/08 03:47:16;;;;;;;14.03;8.20;;;7.60;99.90;;;;;;5065416;28;20564;-80
2021/10/08 03:49:43;;;;;;;14.03;7.90;;;7.60;99.90;;;;;;5064168;28;20474;-82
2021/10/08 03:52:09;;;;;;;12.80;8.37;;;7.70;99.90;;;;;;5064190;28;20843;-81
2021/10/08 03:54:35;;;;;;;16.50;9.57;;;7.60;99.90;;;;;;5063878;28;20456;-79
2021/10/08 03:57:02;;;;;;;13.97;9.30;;;7.50;99.90;;;;;;5064167;28;20418;-80
2021/10/08 03:59:28;;;;;;;15.93;9.10;;;7.40;99.90;;;;;;5063485;28;20846;-79
2021/10/08 04:01:55;;;;;;;13.10;8.90;;;7.40;99.90;;;;;;5062021;28;20422;-80
2021/10/08 04:04:21;;;;;;;17.90;9.47;;;7.40;99.90;;;;;;5062700;28;20453;-79
2021/10/08 04:06:48;;;;;;;16.40;10.20;;;7.40;99.90;;;;;;5061662;28;20937;-81
2021/10/08 04:09:15;;;;;;;14.47;9.33;;;7.40;99.90;;;;;;5061904;28;20466;-81
2021/10/08 04:11:40;;;;;;;14.20;7.80;;;7.30;99.90;;;;;;5061660;28;20414;-81
2021/10/08 04:14:07;;;;;;;15.27;9.00;;;7.30;99.90;;;;;;5059523;28;20495;-80
2021/10/08 04:16:36;;;;;;;13.33;8.10;;;7.30;99.90;;;;;;5055602;28;20191;-80
2021/10/08 04:19:06;;;;;;;13.73;8.73;;;7.30;99.90;;;;;;5055658;28;20458;-80
2021/10/08 04:21:32;;;;;;;18.43;10.37;;;7.30;99.90;;;;;;5055825;28;20423;-79
2021/10/08 04:23:58;;;;;;;17.20;10.07;;;7.20;99.90;;;;;;5054949;28;20945;-80
2021/10/08 04:26:24;;;;;;;12.33;8.00;;;7.20;99.90;;;;;;5055439;28;20422;-80
2021/10/08 04:28:50;;;;;;;17.43;8.60;;;7.30;99.90;;;;;;5054404;28;20221;-79
2021/10/08 04:31:16;;;;;;;13.80;8.10;;;7.40;99.90;;;;;;5055023;28;20172;-79
2021/10/08 04:33:41;;;;;;;15.87;9.27;;;7.40;99.90;;;;;;5054943;28;20206;-79
2021/10/08 04:36:07;;;;;;;14.20;8.60;;;7.30;99.90;;;;;;5055119;28;20422;-79
2021/10/08 04:38:33;;;;;;;14.17;9.33;;;7.30;99.90;;;;;;5054037;28;20719;-80
2021/10/08 04:40:59;;;;;;;15.00;9.77;;;7.30;99.90;;;;;;5054391;28;20460;-80
2021/10/08 04:43:25;;;;;;;16.50;8.87;;;7.30;99.90;;;;;;5054265;28;20187;-81
2021/10/08 04:45:51;;;;;;;14.93;9.50;;;7.30;99.90;;;;;;5054010;28;20477;-81
2021/10/08 04:48:17;;;;;;;14.10;8.83;;;7.30;99.90;;;;;;5054501;28;20458;-81
2021/10/08 04:50:43;;;;;;;12.53;9.07;;;7.40;99.90;;;;;;5053677;28;20805;-79
2021/10/08 04:53:22;;;;;;;13.27;8.77;;;7.40;99.90;;;;;;5053474;28;20176;-80
2021/10/08 04:55:49;;;;;;;12.77;9.07;;;7.30;99.90;;;;;;5053442;28;20501;-80
2021/10/08 04:58:15;;;;;;;15.87;9.00;;;7.30;99.90;;;;;;5053783;28;20429;-79
2021/10/08 05:00:42;;;;;;;15.17;9.43;;;7.20;99.90;;;;;;5053769;28;20502;-80
2021/10/08 05:03:16;;;;;;;13.60;8.50;;;7.20;99.90;;;;;;5053561;28;20432;-80
2021/10/08 05:05:53;;;;;;;11.93;7.97;;;7.20;99.90;;;;;;5053494;28;20445;-79
2021/10/08 05:08:20;;;;;;;13.17;8.00;;;7.10;99.90;;;;;;5053317;28;20556;-80
2021/10/08 05:10:46;;;;;;;11.50;7.23;;;7.00;99.90;;;;;;5053425;28;20914;-80
2021/10/08 05:13:16;;;;;;;10.80;6.73;;;7.00;99.90;;;;;;5052972;28;20546;-80
2021/10/08 05:15:42;;;;;;;11.40;8.20;;;7.00;99.90;;;;;;5053386;28;20480;-79
2021/10/08 05:18:08;;;;;;;12.50;7.47;;;7.00;99.90;;;;;;5053187;28;20949;-81
2021/10/08 05:20:34;;;;;;;12.37;7.90;;;7.00;99.90;;;;;;5053428;28;20414;-79
2021/10/08 05:23:01;;;;;;;8.43;5.87;;;7.00;99.90;;;;;;5052910;28;20188;-80
2021/10/08 05:25:26;;;;;;;12.57;7.90;;;7.00;99.90;;;;;;5052419;28;20860;-81
2021/10/08 05:27:52;;;;;;;12.60;7.70;;;7.00;99.90;;;;;;5053271;28;20460;-79
2021/10/08 05:30:18;;;;;;;12.50;6.80;;;6.90;99.90;;;;;;5052473;28;20195;-79
2021/10/08 05:32:44;;;;;;;10.43;6.93;;;6.80;99.90;;;;;;5054434;28;20214;-80
2021/10/08 05:35:11;;;;;;;13.50;7.63;;;6.80;99.90;;;;;;5062678;28;20441;-80
2021/10/08 05:37:37;;;;;;;10.70;6.70;;;6.80;99.90;;;;;;5062388;28;20212;-82
2021/10/08 05:40:04;;;;;;;10.77;7.03;;;6.80;99.90;;;;;;5044184;22;20894;-82
2021/10/08 05:42:30;;;;;;;11.47;6.47;;;6.90;99.90;;;;;;5025736;28;20412;-81
2021/10/08 05:44:56;;;;;;;9.80;6.60;;;7.00;99.90;;;;;;5027190;28;20420;-82
2021/10/08 05:47:21;;;;;;;10.90;7.67;;;7.00;99.90;;;;;;5011160;28;20191;-81
2021/10/08 05:49:47;;;;;;;9.10;6.83;;;6.90;99.90;;;;;;5011346;28;20227;-81
2021/10/08 05:52:13;;;;;;;9.83;7.00;;;6.90;99.90;;;;;;5011582;28;20206;-82
2021/10/08 05:54:40;;;;;;;10.50;7.07;;;6.80;99.90;;;;;;5011417;28;20204;-82
2021/10/08 05:57:07;;;;;;;12.40;7.57;;;6.80;99.90;;;;;;5017657;28;20267;-82
2021/10/08 05:59:33;;;;;;;11.67;7.03;;;6.80;99.90;;;;;;5015323;28;20432;-82
2021/10/08 06:01:59;;;;;;;11.27;7.07;;;6.90;99.90;;;;;;5015391;28;20420;-82
2021/10/08 06:04:25;;;;;;;12.30;7.70;;;6.80;99.90;;;;;;5018444;28;20570;-82
2021/10/08 06:06:51;;;;;;;12.50;7.27;;;6.90;99.90;;;;;;5018718;28;20477;-82
2021/10/08 06:09:16;;;;;;;11.70;8.00;;;6.90;99.90;;;;;;5017962;28;20307;-82
2021/10/08 06:11:42;;;;;;;12.80;7.40;;;6.90;99.90;;;;;;5015931;28;20192;-82
2021/10/08 06:14:08;;;;;;;14.13;8.17;;;7.00;99.90;;;;;;5015778;28;20685;-82
2021/10/08 06:16:34;;;;;;;10.80;7.43;;;7.00;99.90;;;;;;5015325;28;20185;-82
2021/10/08 06:19:00;;;;;;;12.07;8.77;;;7.00;99.90;;;;;;5015783;28;20188;-82
2021/10/08 06:21:26;;;;;;;12.77;7.90;;;7.10;99.90;;;;;;5015171;28;20216;-82
2021/10/08 06:23:52;;;;;;;11.20;6.80;;;7.20;99.90;;;;;;5014972;28;20212;-82
2021/10/08 06:26:18;;;;;;;11.13;8.03;;;7.20;99.90;;;;;;5014735;28;20438;-82
2021/10/08 06:28:43;;;;;;;15.07;8.87;;;7.30;99.90;;;;;;5015166;28;20213;-82
2021/10/08 06:31:09;;;;;;;14.97;8.97;;;7.30;99.90;;;;;;5015267;28;20185;-82
2021/10/08 06:33:35;;;;;;;12.53;8.33;;;7.40;99.90;;;;;;5014825;28;20181;-82
2021/10/08 06:36:01;;;;;;;12.40;7.83;;;7.40;99.90;;;;;;5015112;28;20243;-81
2021/10/08 06:38:26;;;;;;;12.23;7.27;;;7.50;99.90;;;;;;5014506;28;20219;-82
2021/10/08 06:40:52;;;;;;;10.03;7.20;;;7.50;99.90;;;;;;5014144;28;20205;-82
2021/10/08 06:43:19;;;;;;;11.03;6.97;;;7.60;99.90;;;;;;5014870;28;20272;-81
2021/10/08 06:45:45;;;;;;;9.33;6.17;;;7.70;99.90;;;;;;5014338;28;20217;-81
2021/10/08 06:48:11;;;;;;;10.97;6.47;;;7.80;99.90;;;;;;5014589;28;20467;-82
2021/10/08 06:50:36;;;;;;;9.97;6.30;;;7.80;99.90;;;;;;5014980;28;20453;-81
2021/10/08 06:53:03;;;;;;;10.70;6.90;;;7.90;99.90;;;;;;5014360;28;20195;-81
2021/10/08 06:55:29;;;;;;;10.10;7.90;;;8.00;99.90;;;;;;5014034;28;20487;-82
2021/10/08 06:57:54;;;;;;;12.40;8.07;;;8.00;99.90;;;;;;5013981;28;20440;-82
2021/10/08 07:00:20;;;;;;;13.40;8.53;;;8.10;99.90;;;;;;5013768;28;20420;-82
2021/10/08 07:02:52;;;;;;;10.53;7.20;;;8.20;99.90;;;;;;5013635;28;20275;-81
2021/10/08 07:05:19;;;;;;;12.30;6.80;;;8.30;99.90;;;;;;5013700;28;20448;-82
2021/10/08 07:07:45;;;;;;;12.07;8.00;;;8.50;99.90;;;;;;5013789;28;20432;-82
2021/10/08 07:10:12;;;;;;;11.83;7.77;;;8.60;99.90;;;;;;5013521;28;20810;-82
2021/10/08 07:12:38;;;;;;;14.80;8.30;;;8.70;99.90;;;;;;5013386;28;20431;-82
2021/10/08 07:15:08;;;;;;;12.50;9.33;;;8.80;99.90;;;;;;5012736;28;20828;-81
2021/10/08 07:17:40;;;;;;;11.90;8.27;;;9.00;99.90;;;;;;5013401;28;20434;-82
2021/10/08 07:20:07;;;;;;;12.83;8.90;;;9.10;99.90;;;;;;5013268;28;20792;-82
2021/10/08 07:22:32;;;;;;;13.00;8.97;;;9.20;99.90;;;;;;5014835;28;20416;-82
2021/10/08 07:24:58;;;;;;;12.73;8.97;;;9.40;99.90;;;;;;5013393;28;20440;-82
2021/10/08 07:27:24;;;;;;;13.27;9.30;;;9.50;99.90;;;;;;5013370;28;20189;-82
2021/10/08 07:29:50;;;;;;;12.37;9.80;;;9.60;99.90;;;;;;5012906;28;20237;-82
2021/10/08 07:32:15;;;;;;;15.60;11.00;;;9.80;99.90;;;;;;5012971;28;20636;-82
2021/10/08 07:34:42;;;;;;;13.27;9.73;;;10.00;99.90;;;;;;5013018;28;20234;-82
2021/10/08 07:37:07;;;;;;;13.03;9.90;;;10.20;99.90;;;;;;5013326;28;20235;-82
2021/10/08 07:39:33;;;;;;;21.33;11.00;;;10.30;99.90;;;;;;5013056;28;20829;-82
2021/10/08 07:41:59;;;;;;;16.57;10.60;;;10.50;99.90;;;;;;5012520;28;20189;-82
2021/10/08 07:44:25;;;;;;;14.93;9.90;;;10.50;99.90;;;;;;5012687;28;20223;-83
2021/10/08 07:46:53;;;;;;;14.70;9.80;;;10.60;99.90;;;;;;5029540;28;20212;-82
2021/10/08 07:49:18;;;;;;;16.63;11.03;;;10.70;99.90;;;;;;5012963;28;20566;-82
2021/10/08 07:51:44;;;;;;;15.60;9.00;;;10.90;99.90;;;;;;5013281;28;20423;-82
2021/10/08 07:54:10;;;;;;;14.00;10.00;;;11.10;99.90;;;;;;5012947;28;20280;-82
2021/10/08 07:56:36;;;;;;;14.67;9.77;;;11.20;99.90;;;;;;5013140;28;20181;-82
2021/10/08 07:59:03;;;;;;;14.67;9.90;;;11.30;99.90;;;;;;5012923;28;20227;-82
2021/10/08 08:01:29;;;;;;;11.90;9.00;;;11.30;99.90;;;;;;5013162;28;20272;-79
2021/10/08 08:03:55;;;;;;;16.90;10.10;;;11.40;99.90;;;;;;5013250;28;20483;-79
2021/10/08 08:06:21;;;;;;;15.53;10.23;;;11.60;99.90;;;;;;5013164;28;20428;-80
2021/10/08 08:08:46;;;;;;;15.90;9.23;;;11.60;99.90;;;;;;5012781;28;20208;-79
2021/10/08 08:11:12;;;;;;;15.70;11.20;;;11.70;99.90;;;;;;5013228;28;20272;-80
2021/10/08 08:13:38;;;;;;;16.40;11.43;;;11.80;99.90;;;;;;5013532;28;20208;-80
2021/10/08 08:16:04;;;;;;;15.80;10.60;;;11.80;99.90;;;;;;5012649;28;20188;-79
2021/10/08 08:18:30;;;;;;;15.23;10.63;;;11.80;99.90;;;;;;5012650;28;20275;-80
2021/10/08 08:20:55;;;;;;;21.27;10.87;;;11.90;99.90;;;;;;5012357;28;20511;-79
2021/10/08 08:23:22;;;;;;;16.97;10.23;;;12.00;99.90;;;;;;4996231;28;20220;-79
2021/10/08 08:25:49;;;;;;;18.87;10.90;;;12.00;99.90;;;;;;5011660;28;20423;-80
2021/10/08 08:28:15;;;;;;;13.10;9.93;;;12.20;99.90;;;;;;5012190;28;20591;-80
2021/10/08 08:30:42;;;;;;;17.20;12.10;;;12.30;99.90;;;;;;5012106;28;20416;-80
2021/10/08 08:33:08;;;;;;;15.00;10.97;;;12.40;99.90;;;;;;5012088;28;20181;-79
2021/10/08 08:35:34;;;;;;;17.13;10.43;;;12.50;99.90;;;;;;5011985;28;20447;-80
2021/10/08 08:38:00;;;;;;;17.10;11.50;;;12.60;99.90;;;;;;5011939;28;20431;-80
2021/10/08 08:40:29;;;;;;;15.87;11.23;;;12.70;99.90;;;;;;5011946;28;20786;-80
2021/10/08 08:42:57;;;;;;;19.53;12.40;;;12.80;99.90;;;;;;5011732;28;20435;-80
2021/10/08 08:45:22;;;;;;;19.30;13.57;;;12.90;99.90;;;;;;5011658;28;20816;-79
2021/10/08 08:48:02;;;;;;;17.33;10.80;;;13.00;99.90;;;;;;5011592;28;20431;-79
2021/10/08 08:50:28;;;;;;;14.90;10.20;;;13.10;99.90;;;;;;5011960;28;20204;-80
2021/10/08 08:52:54;;;;;;;13.57;9.43;;;13.20;99.90;;;;;;5011661;28;20424;-80
2021/10/08 08:55:21;;;;;;;12.27;9.10;;;13.30;99.90;;;;;;5012134;28;20448;-79
2021/10/08 08:57:47;;;;;;;12.00;8.43;;;13.30;99.90;;;;;;5011819;28;20185;-80
2021/10/08 09:00:18;;;;;;;13.40;9.10;;;13.30;99.90;;;;;;5015225;28;21007;-80
2021/10/08 09:02:55;;;;;;;11.87;7.47;;;13.40;99.90;;;;;;5014628;28;20451;-80
2021/10/08 09:05:24;;;;;;;14.07;8.73;;;13.50;99.90;;;;;;5014975;28;20450;-80
2021/10/08 09:07:52;;;;;;;12.07;9.10;;;13.60;99.90;;;;;;5014666;28;20450;-80
2021/10/08 09:10:20;;;;;;;13.80;9.40;;;13.60;99.90;;;;;;5014067;28;20474;-80
2021/10/08 09:12:47;;;;;;;12.90;9.47;;;13.70;99.90;;;;;;5014228;28;20865;-82
2021/10/08 09:15:15;;;;;;;15.90;7.70;;;13.60;99.90;;;;;;5013960;28;20440;-82
2021/10/08 09:17:41;;;;;;;16.30;7.77;;;13.60;99.90;;;;;;5013379;28;20430;-82
2021/10/08 09:20:08;;;;;;;13.83;8.57;;;13.70;99.90;;;;;;5013545;28;20416;-82
2021/10/08 09:22:40;;;;;;;13.93;9.17;;;13.80;99.90;;;;;;5013127;28;20420;-82
2021/10/08 09:25:15;;;;;;;13.03;9.33;;;13.80;99.90;;;;;;5013774;28;20443;-82
2021/10/08 09:27:43;;;;;;;14.50;9.53;;;13.80;99.90;;;;;;5013394;28;20419;-82
2021/10/08 09:30:10;;;;;;;15.83;10.23;;;13.90;99.90;;;;;;5012525;28;20993;-83
2021/10/08 09:32:51;;;;;;;12.90;8.50;;;14.10;99.90;;;;;;5012435;28;20427;-83
2021/10/08 09:35:25;;;;;;;14.47;9.10;;;14.20;99.90;;;;;;5012555;28;20440;-82
2021/10/08 09:38:11;;;;;;;13.40;9.33;;;14.30;99.90;;;;;;5015204;28;20483;-82
2021/10/08 09:40:50;;;;;;;15.50;9.60;;;14.40;99.90;;;;;;5016662;28;20533;-82
2021/10/08 09:43:22;;;;;;;15.17;9.57;;;14.50;99.90;;;;;;5015808;28;20431;-82
2021/10/08 09:45:53;;;;;;;15.33;9.87;;;14.60;99.90;;;;;;5015879;28;20440;-82
2021/10/08 09:48:20;;;;;;;11.57;8.30;;;14.70;99.90;;;;;;5015933;28;21068;-82
2021/10/08 09:51:08;;;;;;;10.77;9.53;;;14.80;99.90;;;;;;5016202;28;20447;-82
2021/10/08 09:53:47;;;;;;;15.43;8.73;;;14.90;99.90;;;;;;5015584;28;20450;-82
2021/10/08 09:56:28;;;;;;;10.80;7.60;;;15.10;99.90;;;;;;5015535;28;20489;-82
2021/10/08 09:58:58;;;;;;;12.43;7.90;;;15.30;99.90;;;;;;5015403;28;20439;-82
2021/10/08 10:01:30;;;;;;;14.90;9.00;;;15.80;99.90;;;;;;5015144;28;20480;-83
2021/10/08 10:03:56;;;;;;;11.87;7.60;;;17.80;99.90;;;;;;5015526;28;20458;-83
2021/10/08 10:06:22;;;;;;;11.40;7.60;;;20.80;99.90;;;;;;5015766;28;20428;-80
2021/10/08 10:08:48;;;;;;;11.00;7.00;;;23.70;99.90;;;;;;5015224;28;20474;-80
2021/10/08 10:11:20;;;;;;;11.60;8.07;;;26.10;99.90;;;;;;5015884;28;20447;-81
2021/10/08 10:13:48;;;;;;;8.30;6.80;;;28.20;99.90;;;;;;5015536;28;20821;-81
2021/10/08 10:16:15;;;;;;;7.20;5.27;;;30.10;99.90;;;;;;5016503;28;20788;-81
2021/10/08 10:18:45;;;;;;;6.40;5.63;;;31.60;94.40;;;;;;5017138;28;20428;-81
2021/10/08 10:21:12;;;;;;;8.83;6.33;;;32.30;87.70;;;;;;5016929;28;20416;-81
2021/10/08 10:23:39;;;;;;;6.97;5.60;;;31.70;80.90;;;;;;5016284;28;20424;-82
2021/10/08 10:26:05;;;;;;;8.60;6.70;;;30.70;80.50;;;;;;5016980;28;20431;-82
2021/10/08 10:28:31;;;;;;;6.93;5.83;;;29.50;77.50;;;;;;5016414;28;20463;-81
2021/10/08 10:30:57;;;;;;;8.30;6.83;;;28.30;81.30;;;;;;5015253;28;20439;-80
2021/10/08 10:33:28;;;;;;;10.50;7.33;;;26.90;86.50;;;;;;5015349;28;20432;-81
2021/10/08 10:35:59;;;;;;;8.93;7.73;;;25.70;91.00;;;;;;5014965;28;20446;-81
2021/10/08 10:38:33;;;;;;;9.10;6.80;;;24.40;94.20;;;;;;5014467;28;20428;-80
2021/10/08 10:41:21;;;;;;;10.60;7.40;;;23.60;99.40;;;;;;5014530;28;20505;-80
2021/10/08 10:43:53;;;;;;;11.97;8.30;;;22.90;99.90;;;;;;5014259;28;20472;-81
2021/10/08 10:46:56;;;;;;;10.40;8.10;;;22.80;99.90;;;;;;5014744;28;20436;-80
2021/10/08 10:51:58;;;;;;;10.23;7.30;;;22.90;99.90;;;;;;5015604;28;20423;-81
2021/10/08 10:54:48;;;;;;;8.43;6.57;;;22.90;99.90;;;;;;5013814;28;20508;-80
2021/10/08 10:57:20;;;;;;;10.97;8.10;;;23.20;99.90;;;;;;5014347;28;20432;-80
2021/10/08 10:59:46;;;;;;;10.50;6.87;;;23.60;99.90;;;;;;5013988;28;20423;-81
2021/10/08 11:02:15;;;;;;;9.50;6.90;;;24.20;99.90;;;;;;5013924;28;20423;-81
2021/10/08 11:04:42;;;;;;;11.93;6.67;;;25.10;99.90;;;;;;5014210;28;20535;-81
2021/10/08 11:07:08;;;;;;;8.70;7.10;;;26.20;99.90;;;;;;5014630;28;20998;-81
2021/10/08 11:09:36;;;;;;;9.20;7.27;;;28.30;99.90;;;;;;5014318;28;20479;-81
2021/10/08 11:12:27;;;;;;;8.77;5.93;;;30.10;96.40;;;;;;5014667;28;20417;-81
2021/10/08 11:17:52;;;;;;;7.00;5.90;;;30.20;88.40;;;;;;5004823;28;20448;-81
2021/10/08 11:20:38;;;;;;;7.07;6.37;;;29.00;90.30;;;;;;5013680;28;20987;-81
2021/10/08 11:23:20;;;;;;;7.87;7.07;;;28.70;90.40;;;;;;5013467;28;20926;-81
2021/10/08 11:25:49;;;;;;;10.60;7.03;;;28.30;88.20;;;;;;5013364;28;20435;-81
2021/10/08 11:28:16;;;;;;;8.00;5.20;;;28.10;91.30;;;;;;5013038;28;20522;-81
2021/10/08 11:30:41;;;;;;;6.67;4.90;;;29.00;92.00;;;;;;5013632;28;20416;-81
2021/10/08 11:33:07;;;;;;;6.43;4.73;;;28.30;89.50;;;;;;5013553;28;20439;-80
2021/10/08 11:35:35;;;;;;;6.90;5.00;;;27.90;88.20;;;;;;5013426;28;20287;-80
2021/10/08 11:38:04;;;;;;;7.83;5.00;;;26.90;88.90;;;;;;5013246;28;20481;-80
2021/10/08 11:40:34;;;;;;;6.50;5.40;;;26.00;90.10;;;;;;5053779;23;20493;-84
2021/10/08 11:46:33;;;;;;;6.20;4.20;;;24.40;96.10;;;;;;5067771;28;20434;-84
2021/10/08 11:48:41;;;;;;;7.40;4.63;;;23.80;95.40;;;;;;5055551;28;20979;-83
2021/10/08 11:51:08;;;;;;;6.30;4.57;;;23.00;99.30;;;;;;5081379;28;20477;-83
2021/10/08 11:54:00;;;;;;;6.83;4.60;;;22.50;99.90;;;;;;5062879;28;20418;-83
2021/10/08 11:56:27;;;;;;;5.10;4.17;;;22.10;98.60;;;;;;5062746;28;20422;-83
2021/10/08 11:59:09;;;;;;;5.77;3.90;;;21.70;99.90;;;;;;5063457;28;20458;-83
2021/10/08 12:01:36;;;;;;;6.13;3.87;;;21.60;99.90;;;;;;5064526;28;20800;-83
2021/10/08 12:04:01;;;;;;;6.23;3.50;;;21.30;99.90;;;;;;5064866;28;20422;-83
2021/10/08 12:06:30;;;;;;;8.93;3.90;;;21.10;99.90;;;;;;5078838;28;20901;-83
2021/10/08 12:08:57;;;;;;;5.40;4.00;;;21.10;99.90;;;;;;5064315;28;20664;-83
2021/10/08 12:11:28;;;;;;;6.70;4.00;;;20.90;99.90;;;;;;5063820;28;20428;-83
2021/10/08 12:13:59;;;;;;;5.30;3.93;;;20.80;99.90;;;;;;5063402;28;20417;-83
2021/10/08 12:16:35;;;;;;;6.03;4.63;;;21.00;99.90;;;;;;5063730;28;20533;-83
2021/10/08 12:19:02;;;;;;;6.40;4.43;;;22.00;99.90;;;;;;5077773;28;20500;-83
2021/10/08 12:21:38;;;;;;;5.90;4.33;;;23.00;99.90;;;;;;5062949;28;20414;-84
2021/10/08 12:24:15;;;;;;;5.73;4.37;;;23.60;99.90;;;;;;5059996;28;20422;-83
2021/10/08 12:26:51;;;;;;;7.03;4.77;;;24.70;99.90;;;;;;5061420;28;20441;-83
2021/10/08 12:29:16;;;;;;;4.97;4.40;;;26.60;99.90;;;;;;5061917;28;20807;-83
2021/10/08 12:31:57;;;;;;;5.23;4.10;;;28.40;95.20;;;;;;5061656;28;20418;-83
2021/10/08 12:34:32;;;;;;;6.23;3.90;;;28.80;91.80;;;;;;5059942;28;20211;-83
2021/10/08 12:36:59;;;;;;;6.53;4.80;;;28.40;92.60;;;;;;5059202;28;20424;-83
2021/10/08 12:39:24;;;;;;;5.60;4.23;;;27.10;90.20;;;;;;5059685;28;20525;-84
2021/10/08 12:42:01;;;;;;;5.47;3.47;;;26.80;92.50;;;;;;5060883;28;20451;-83
2021/10/08 12:44:33;;;;;;;9.10;4.53;;;28.20;92.60;;;;;;5060831;28;20172;-84
2021/10/08 12:49:53;;;;;;;5.97;4.17;;;28.60;87.50;;;;;;5060947;28;20441;-84
2021/10/08 12:52:37;;;;;;;7.07;4.70;;;27.90;89.80;;;;;;5058105;28;20430;-84
2021/10/08 12:55:25;;;;;;;5.80;4.10;;;27.00;90.10;;;;;;5059820;28;20421;-84
2021/10/08 12:58:14;;;;;;;5.67;4.07;;;25.90;90.60;;;;;;5059952;28;20425;-84
2021/10/08 13:00:44;;;;;;;5.93;4.37;;;25.20;93.30;;;;;;5057620;28;20973;-83